createdAt,value
2019-05-07T00:01:55.307Z,96914.89
2019-05-07T00:04:26.459Z,96915.84
2019-05-07T00:06:57.429Z,96916.75
2019-05-07T00:09:28.513Z,96912.63
2019-05-07T00:11:59.484Z,96908.64
2019-05-07T00:14:31.993Z,96902.02
2019-05-07T00:17:04.620Z,96899.65
2019-05-07T00:19:35.706Z,96900.41
2019-05-07T00:22:07.669Z,96896.91
2019-05-07T00:24:38.761Z,96893.09
2019-05-07T00:27:09.747Z,96890.66
2019-05-07T00:29:42.843Z,96892.97
2019-05-07T00:32:13.565Z,96895.83
2019-05-07T00:34:48.763Z,96892.09
2019-05-07T00:37:35.358Z,96890.23
2019-05-07T00:40:35.255Z,96883.98
2019-05-07T00:43:24.595Z,96883.31
2019-05-07T00:45:58.624Z,96886.54
2019-05-07T00:48:29.723Z,96885.22
2019-05-07T00:51:18.383Z,96887.50
2019-05-07T00:53:51.914Z,96879.45
2019-05-07T00:56:22.531Z,96878.33
2019-05-07T00:58:53.603Z,96878.33
2019-05-07T01:01:24.725Z,96871.34
2019-05-07T01:03:55.827Z,96876.09
2019-05-07T01:06:27.000Z,96874.17
2019-05-07T01:08:58.123Z,96872.39
2019-05-07T01:11:29.120Z,96868.08
2019-05-07T01:14:00.193Z,96871.59
2019-05-07T01:16:32.954Z,96871.62
2019-05-07T01:19:04.887Z,96871.25
2019-05-07T01:21:35.987Z,96868.19
2019-05-07T01:24:07.074Z,96862.44
2019-05-07T01:26:38.155Z,96866.91
2019-05-07T01:29:10.309Z,96859.56
2019-05-07T01:31:47.598Z,96869.50
2019-05-07T01:34:28.021Z,96864.57
2019-05-07T01:36:59.010Z,96851.81
2019-05-07T01:39:30.016Z,96848.66
2019-05-07T01:42:02.182Z,96845.78
2019-05-07T01:44:33.347Z,96844.87
2019-05-07T01:47:05.171Z,96847.37
2019-05-07T01:49:36.338Z,96843.84
2019-05-07T01:52:07.334Z,96846.23
2019-05-07T01:54:38.327Z,96844.92
2019-05-07T01:57:09.316Z,96846.45
2019-05-07T01:59:42.749Z,96846.69
2019-05-07T02:02:33.225Z,96845.06
2019-05-07T02:05:14.206Z,96850.30
2019-05-07T02:07:52.153Z,96849.01
2019-05-07T02:10:31.957Z,96850.22
2019-05-07T02:13:02.836Z,96850.63
2019-05-07T02:15:33.936Z,96853.15
2019-05-07T02:18:05.178Z,96849.14
2019-05-07T02:20:36.618Z,96850.66
2019-05-07T02:23:07.726Z,96843.86
2019-05-07T02:25:38.706Z,96843.77
2019-05-07T02:28:09.694Z,96842.60
2019-05-07T02:30:44.118Z,96841.34
2019-05-07T02:33:14.120Z,96837.63
2019-05-07T02:35:45.264Z,96840.86
2019-05-07T02:38:23.073Z,96836.72
2019-05-07T02:41:03.108Z,96836.72
2019-05-07T02:43:34.149Z,96843.73
2019-05-07T02:46:26.351Z,96834.84
2019-05-07T02:48:58.677Z,96841.69
2019-05-07T02:51:38.502Z,96842.91
2019-05-07T02:54:24.502Z,96845.09
2019-05-07T02:56:55.660Z,96841.47
2019-05-07T02:59:26.637Z,96840.95
2019-05-07T03:01:57.775Z,96847.41
2019-05-07T03:04:28.979Z,96843.03
2019-05-07T03:07:00.157Z,96844.34
2019-05-07T03:09:32.909Z,96841.64
2019-05-07T03:12:05.260Z,96844.99
2019-05-07T03:14:36.338Z,96846.22
2019-05-07T03:17:07.672Z,96847.48
2019-05-07T03:19:42.951Z,96847.83
2019-05-07T03:22:14.156Z,96850.31
2019-05-07T03:24:56.084Z,96847.08
2019-05-07T03:27:27.639Z,96850.05
2019-05-07T03:30:19.505Z,96848.83
2019-05-07T03:32:57.769Z,96851.19
2019-05-07T03:35:37.612Z,96846.39
2019-05-07T03:38:08.934Z,96844.59
2019-05-07T03:40:40.112Z,96846.93
2019-05-07T03:43:13.788Z,96846.86
2019-05-07T03:45:56.089Z,96844.42
2019-05-07T03:48:28.467Z,96847.56
2019-05-07T03:50:59.480Z,96845.13
2019-05-07T03:53:33.541Z,96846.28
2019-05-07T03:56:04.460Z,96844.05
2019-05-07T03:58:35.732Z,96842.43
2019-05-07T04:01:06.773Z,96847.41
2019-05-07T04:03:37.789Z,96842.36
2019-05-07T04:06:08.810Z,96846.56
2019-05-07T04:08:42.842Z,96844.05
2019-05-07T04:11:13.900Z,96844.39
2019-05-07T04:13:45.220Z,96845.87
2019-05-07T04:16:16.275Z,96853.77
2019-05-07T04:18:47.322Z,96855.05
2019-05-07T04:21:18.454Z,96853.77
2019-05-07T04:23:54.086Z,96850.95
2019-05-07T04:26:34.090Z,96850.30
2019-05-07T04:29:07.933Z,96854.22
2019-05-07T04:31:43.487Z,96853.95
2019-05-07T04:34:19.525Z,96851.20
2019-05-07T04:36:53.438Z,96852.64
2019-05-07T04:39:23.568Z,96857.84
2019-05-07T04:41:54.687Z,96855.47
2019-05-07T04:44:25.759Z,96859.56
2019-05-07T04:46:56.750Z,96857.94
2019-05-07T04:49:27.742Z,96849.38
2019-05-07T04:52:04.348Z,96850.48
2019-05-07T04:54:36.358Z,96853.58
2019-05-07T04:57:12.735Z,96846.28
2019-05-07T04:59:44.217Z,96844.91
2019-05-07T05:02:19.257Z,96841.32
2019-05-07T05:04:53.045Z,96845.20
2019-05-07T05:07:22.944Z,96849.55
2019-05-07T05:09:53.930Z,96848.16
2019-05-07T05:12:25.099Z,96847.34
2019-05-07T05:14:56.201Z,96848.05
2019-05-07T05:17:27.329Z,96851.28
2019-05-07T05:20:00.577Z,96854.45
2019-05-07T05:22:53.126Z,96848.88
2019-05-07T05:25:28.372Z,96847.52
2019-05-07T05:27:59.412Z,96845.30
2019-05-07T05:30:42.504Z,96845.52
2019-05-07T05:33:14.551Z,96845.42
2019-05-07T05:35:45.743Z,96846.19
2019-05-07T05:38:16.925Z,96844.47
2019-05-07T05:40:48.024Z,96844.02
2019-05-07T05:43:26.380Z,96847.31
2019-05-07T05:45:59.885Z,96852.71
2019-05-07T05:48:33.132Z,96856.05
2019-05-07T05:51:26.757Z,96855.74
2019-05-07T05:54:02.094Z,96859.75
2019-05-07T05:56:39.783Z,96856.18
2019-05-07T05:59:47.392Z,96858.22
2019-05-07T06:02:17.114Z,96855.73
2019-05-07T06:05:02.153Z,96853.87
2019-05-07T06:07:37.983Z,96853.13
2019-05-07T06:10:18.320Z,96855.73
2019-05-07T06:12:58.401Z,96850.88
2019-05-07T06:15:47.481Z,96855.75
2019-05-07T06:18:41.908Z,96854.84
2019-05-07T06:21:32.534Z,96853.77
2019-05-07T06:24:06.543Z,96855.02
2019-05-07T06:26:37.671Z,96857.88
2019-05-07T06:29:08.796Z,96861.14
2019-05-07T06:31:42.060Z,96856.25
2019-05-07T06:34:12.711Z,96857.44
2019-05-07T06:36:44.578Z,96858.00
2019-05-07T06:39:23.719Z,96861.55
2019-05-07T06:42:12.711Z,96863.92
2019-05-07T06:44:46.101Z,96870.22
2019-05-07T06:47:17.109Z,96866.66
2019-05-07T06:49:48.100Z,96860.70
2019-05-07T06:52:19.102Z,96863.78
2019-05-07T06:54:52.257Z,96867.53
2019-05-07T06:57:24.373Z,96861.27
2019-05-07T06:59:59.184Z,96864.34
2019-05-07T07:02:52.496Z,96857.84
2019-05-07T07:05:42.589Z,96859.76
2019-05-07T07:08:26.107Z,96856.30
2019-05-07T07:11:34.285Z,96854.70
2019-05-07T07:14:06.234Z,96852.00
2019-05-07T07:16:37.376Z,96865.38
2019-05-07T07:19:08.689Z,96861.05
2019-05-07T07:21:42.035Z,96849.16
2019-05-07T07:24:12.866Z,96852.55
2019-05-07T07:26:44.811Z,96848.23
2019-05-07T07:29:17.474Z,96839.33
2019-05-07T07:31:55.069Z,96839.66
2019-05-07T07:34:27.501Z,96841.83
2019-05-07T07:37:15.170Z,96840.81
2019-05-07T07:39:44.551Z,96837.59
2019-05-07T07:42:15.603Z,96843.58
2019-05-07T07:44:48.230Z,96841.28
2019-05-07T07:47:19.285Z,96832.26
2019-05-07T07:49:52.578Z,96832.88
2019-05-07T07:52:23.791Z,96838.73
2019-05-07T07:54:54.920Z,96834.19
2019-05-07T07:57:46.261Z,96834.97
2019-05-07T08:00:45.582Z,96829.59
2019-05-07T08:03:16.585Z,96830.89
2019-05-07T08:05:47.604Z,96827.81
2019-05-07T08:08:18.697Z,96825.41
2019-05-07T08:10:52.003Z,96820.41
2019-05-07T08:13:23.213Z,96817.14
2019-05-07T08:15:54.323Z,96818.57
2019-05-07T08:18:25.453Z,96821.67
2019-05-07T08:20:56.857Z,96814.58
2019-05-07T08:23:27.924Z,96820.39
2019-05-07T08:25:59.208Z,96814.50
2019-05-07T08:28:31.922Z,96814.16
2019-05-07T08:31:22.578Z,96809.40
2019-05-07T08:34:04.045Z,96805.86
2019-05-07T08:36:35.259Z,96811.86
2019-05-07T08:39:07.956Z,96807.61
2019-05-07T08:41:39.069Z,96793.33
2019-05-07T08:44:15.549Z,96794.08
2019-05-07T08:46:53.683Z,96794.77
2019-05-07T08:49:35.699Z,96787.98
2019-05-07T08:52:03.065Z,96785.66
2019-05-07T08:54:34.240Z,96786.69
2019-05-07T08:57:06.495Z,96779.63
2019-05-07T08:59:37.743Z,96786.84
2019-05-07T09:02:08.898Z,96784.41
2019-05-07T09:04:41.772Z,96774.36
2019-05-07T09:07:13.228Z,96777.72
2019-05-07T09:09:45.249Z,96772.52
2019-05-07T09:12:16.411Z,96762.72
2019-05-07T09:14:47.402Z,96758.31
2019-05-07T09:17:18.471Z,96748.90
2019-05-07T09:19:52.213Z,96749.37
2019-05-07T09:22:23.097Z,96752.86
2019-05-07T09:24:54.346Z,96756.99
2019-05-07T09:27:46.038Z,96759.88
2019-05-07T09:30:47.120Z,96755.09
2019-05-07T09:33:24.355Z,96753.77
2019-05-07T09:35:56.039Z,96745.86
2019-05-07T09:38:27.155Z,96736.30
2019-05-07T09:40:58.490Z,96736.67
2019-05-07T09:43:29.559Z,96743.79
2019-05-07T09:46:02.606Z,96734.38
2019-05-07T09:48:34.257Z,96734.67
2019-05-07T09:51:06.555Z,96730.33
2019-05-07T09:53:37.595Z,96728.47
2019-05-07T09:56:09.606Z,96728.30
2019-05-07T09:58:42.587Z,96729.27
2019-05-07T10:01:13.614Z,96731.95
2019-05-07T10:03:45.224Z,96729.53
2019-05-07T10:06:16.507Z,96727.77
2019-05-07T10:08:47.719Z,96724.56
2019-05-07T10:11:29.771Z,96721.00
2019-05-07T10:14:07.822Z,96722.80
2019-05-07T10:16:54.987Z,96721.09
2019-05-07T10:19:26.217Z,96721.50
2019-05-07T10:21:57.634Z,96719.64
2019-05-07T10:24:28.927Z,96714.51
2019-05-07T10:27:02.086Z,96713.02
2019-05-07T10:29:33.064Z,96720.56
2019-05-07T10:32:04.726Z,96717.03
2019-05-07T10:34:35.836Z,96710.69
2019-05-07T10:37:07.026Z,96715.18
2019-05-07T10:39:38.094Z,96714.01
2019-05-07T10:42:09.385Z,96709.50
2019-05-07T10:44:46.587Z,96708.58
2019-05-07T10:47:48.739Z,96713.34
2019-05-07T10:50:35.575Z,96708.49
2019-05-07T10:52:56.044Z,96700.72
2019-05-07T10:55:27.248Z,96700.77
2019-05-07T10:57:58.318Z,96693.48
2019-05-07T11:00:30.203Z,96689.96
2019-05-07T11:03:02.357Z,96686.31
2019-05-07T11:05:33.821Z,96682.51
2019-05-07T11:08:05.290Z,96678.96
2019-05-07T11:10:36.430Z,96682.17
2019-05-07T11:13:07.653Z,96681.02
2019-05-07T11:15:39.422Z,96677.36
2019-05-07T11:18:18.327Z,96673.84
2019-05-07T11:20:51.139Z,96665.61
2019-05-07T11:23:22.432Z,96665.95
2019-05-07T11:25:53.628Z,96667.44
2019-05-07T11:28:24.770Z,96658.12
2019-05-07T11:30:55.835Z,96659.73
2019-05-07T11:33:26.961Z,96652.91
2019-05-07T11:35:58.100Z,96655.73
2019-05-07T11:38:29.254Z,96646.32
2019-05-07T11:41:02.365Z,96637.26
2019-05-07T11:43:53.888Z,96634.80
2019-05-07T11:46:32.813Z,96632.53
2019-05-07T11:49:22.969Z,96629.01
2019-05-07T11:52:02.160Z,96626.87
2019-05-07T11:54:33.252Z,96624.64
2019-05-07T11:57:04.300Z,96626.99
2019-05-07T11:59:35.447Z,96626.80
2019-05-07T12:02:07.297Z,96611.22
2019-05-07T12:04:39.248Z,96606.98
2019-05-07T12:07:11.923Z,96610.33
2019-05-07T12:09:43.262Z,96600.31
2019-05-07T12:12:15.217Z,96600.66
2019-05-07T12:14:46.261Z,96598.81
2019-05-07T12:17:17.472Z,96600.97
2019-05-07T12:19:48.469Z,96594.27
2019-05-07T12:22:38.408Z,96593.98
2019-05-07T12:25:09.618Z,96593.75
2019-05-07T12:27:40.961Z,96588.69
2019-05-07T12:30:15.588Z,96595.52
2019-05-07T12:32:55.097Z,96592.78
2019-05-07T12:35:26.746Z,96590.31
2019-05-07T12:37:57.795Z,96581.95
2019-05-07T12:40:29.042Z,96582.45
2019-05-07T12:43:01.919Z,96579.56
2019-05-07T12:45:33.350Z,96576.78
2019-05-07T12:48:04.602Z,96574.53
2019-05-07T12:50:35.630Z,96568.65
2019-05-07T12:53:29.280Z,96564.33
2019-05-07T12:56:02.218Z,96559.53
2019-05-07T12:58:33.395Z,96562.80
2019-05-07T13:01:08.854Z,96567.32
2019-05-07T13:03:52.152Z,96563.06
2019-05-07T13:06:23.724Z,96556.19
2019-05-07T13:08:54.930Z,96553.57
2019-05-07T13:11:26.063Z,96555.20
2019-05-07T13:13:57.148Z,96547.64
2019-05-07T13:16:28.551Z,96552.80
2019-05-07T13:19:01.770Z,96546.86
2019-05-07T13:21:45.862Z,96545.83
2019-05-07T13:24:05.426Z,96535.96
2019-05-07T13:26:36.547Z,96541.39
2019-05-07T13:29:07.711Z,96530.38
2019-05-07T13:31:40.250Z,96533.42
2019-05-07T13:34:12.293Z,96531.18
2019-05-07T13:36:47.238Z,96529.34
2019-05-07T13:39:34.538Z,96529.08
2019-05-07T13:42:24.822Z,96513.80
2019-05-07T13:45:02.650Z,96524.34
2019-05-07T13:47:38.899Z,96514.98
2019-05-07T13:50:12.030Z,96511.63
2019-05-07T13:52:43.499Z,96512.53
2019-05-07T13:55:16.364Z,96511.03
2019-05-07T13:57:48.063Z,96507.89
2019-05-07T14:00:27.320Z,96499.23
2019-05-07T14:02:58.335Z,96501.34
2019-05-07T14:05:29.424Z,96497.80
2019-05-07T14:08:00.673Z,96498.17
2019-05-07T14:10:33.667Z,96500.98
2019-05-07T14:13:12.574Z,96489.89
2019-05-07T14:15:37.550Z,96492.00
2019-05-07T14:18:08.575Z,96481.41
2019-05-07T14:20:39.574Z,96482.41
2019-05-07T14:23:14.148Z,96476.55
2019-05-07T14:25:43.404Z,96477.06
2019-05-07T14:28:15.528Z,96468.73
2019-05-07T14:30:46.680Z,96465.72
2019-05-07T14:33:22.905Z,96462.97
2019-05-07T14:36:04.927Z,96467.16
2019-05-07T14:38:42.718Z,96465.32
2019-05-07T14:41:13.991Z,96464.84
2019-05-07T14:43:52.337Z,96458.81
2019-05-07T14:46:23.658Z,96457.66
2019-05-07T14:48:54.868Z,96459.30
2019-05-07T14:51:26.132Z,96454.86
2019-05-07T14:53:57.504Z,96455.13
2019-05-07T14:56:28.723Z,96453.54
2019-05-07T14:59:02.158Z,96450.04
2019-05-07T15:01:34.138Z,96445.36
2019-05-07T15:04:05.555Z,96440.95
2019-05-07T15:06:36.725Z,96438.70
2019-05-07T15:09:08.338Z,96441.17
2019-05-07T15:11:39.599Z,96431.78
2019-05-07T15:14:12.002Z,96438.62
2019-05-07T15:16:43.746Z,96429.79
2019-05-07T15:19:15.699Z,96426.11
2019-05-07T15:21:51.651Z,96421.63
2019-05-07T15:24:22.565Z,96418.70
2019-05-07T15:26:56.136Z,96410.50
2019-05-07T15:29:27.320Z,96409.95
2019-05-07T15:32:08.971Z,96405.95
2019-05-07T15:34:42.132Z,96410.95
2019-05-07T15:37:13.231Z,96410.74
2019-05-07T15:39:45.657Z,96409.08
2019-05-07T15:42:16.865Z,96404.08
2019-05-07T15:44:47.879Z,96403.67
2019-05-07T15:47:24.479Z,96405.21
2019-05-07T15:49:55.572Z,96407.53
2019-05-07T15:52:51.470Z,96403.55
2019-05-07T15:55:17.021Z,96403.28
2019-05-07T15:57:48.419Z,96398.99
2019-05-07T16:00:21.974Z,96400.52
2019-05-07T16:02:57.670Z,96397.60
2019-05-07T16:05:28.886Z,96395.25
2019-05-07T16:08:01.670Z,96392.78
2019-05-07T16:10:33.097Z,96390.27
2019-05-07T16:13:04.594Z,96389.98
2019-05-07T16:15:35.969Z,96383.98
2019-05-07T16:18:12.997Z,96384.25
2019-05-07T16:20:43.694Z,96381.90
2019-05-07T16:23:18.203Z,96382.41
2019-05-07T16:25:48.503Z,96384.62
2019-05-07T16:28:21.792Z,96382.68
2019-05-07T16:30:52.442Z,96382.44
2019-05-07T16:33:23.560Z,96374.97
2019-05-07T16:35:54.768Z,96370.45
2019-05-07T16:38:25.857Z,96366.47
2019-05-07T16:40:56.904Z,96360.08
2019-05-07T16:43:28.142Z,96361.64
2019-05-07T16:45:59.264Z,96358.99
2019-05-07T16:48:32.539Z,96356.34
2019-05-07T16:51:03.308Z,96354.81
2019-05-07T16:53:35.252Z,96352.16
2019-05-07T16:56:07.899Z,96344.47
2019-05-07T16:58:43.223Z,96343.09
2019-05-07T17:01:14.601Z,96338.91
2019-05-07T17:03:52.089Z,96340.81
2019-05-07T17:06:25.221Z,96337.28
2019-05-07T17:09:02.419Z,96339.45
2019-05-07T17:11:34.919Z,96335.69
2019-05-07T17:14:06.331Z,96336.41
2019-05-07T17:16:37.536Z,96339.87
2019-05-07T17:19:11.666Z,96339.83
2019-05-07T17:21:43.089Z,96325.73
2019-05-07T17:24:14.483Z,96337.45
2019-05-07T17:26:45.947Z,96330.45
2019-05-07T17:29:17.081Z,96333.38
2019-05-07T17:31:48.102Z,96326.07
2019-05-07T17:34:19.113Z,96326.55
2019-05-07T17:36:52.295Z,96325.63
2019-05-07T17:39:22.903Z,96320.05
2019-05-07T17:41:54.137Z,96327.63
2019-05-07T17:44:25.147Z,96326.22
2019-05-07T17:46:56.331Z,96324.01
2019-05-07T17:49:27.350Z,96327.13
2019-05-07T17:51:58.436Z,96323.83
2019-05-07T17:54:31.692Z,96325.65
2019-05-07T17:57:02.515Z,96321.56
2019-05-07T17:59:33.520Z,96322.58
2019-05-07T18:02:14.285Z,96317.48
2019-05-07T18:04:51.305Z,96328.22
2019-05-07T18:07:20.152Z,96321.52
2019-05-07T18:09:51.160Z,96319.10
2019-05-07T18:12:22.583Z,96319.34
2019-05-07T18:14:53.663Z,96317.08
2019-05-07T18:17:42.674Z,96313.54
2019-05-07T18:20:13.977Z,96312.77
2019-05-07T18:22:46.474Z,96313.96
2019-05-07T18:25:17.671Z,96305.66
2019-05-07T18:27:48.697Z,96310.05
2019-05-07T18:30:22.050Z,96310.28
2019-05-07T18:32:58.596Z,96306.82
2019-05-07T18:35:29.713Z,96307.83
2019-05-07T18:38:02.620Z,96297.89
2019-05-07T18:40:33.516Z,96300.68
2019-05-07T18:43:04.519Z,96305.11
2019-05-07T18:45:35.880Z,96309.21
2019-05-07T18:48:07.981Z,96314.45
2019-05-07T18:50:39.074Z,96310.67
2019-05-07T18:53:12.218Z,96308.77
2019-05-07T18:55:43.196Z,96317.23
2019-05-07T18:58:14.342Z,96322.11
2019-05-07T19:00:51.891Z,96326.72
2019-05-07T19:03:25.246Z,96331.91
2019-05-07T19:05:56.300Z,96323.88
2019-05-07T19:08:27.296Z,96330.61
2019-05-07T19:10:58.382Z,96334.84
2019-05-07T19:13:29.547Z,96327.09
2019-05-07T19:16:02.851Z,96326.28
2019-05-07T19:18:33.494Z,96325.31
2019-05-07T19:21:06.850Z,96327.80
2019-05-07T19:23:38.063Z,96326.75
2019-05-07T19:28:46.410Z,96315.55
2019-05-07T19:31:17.609Z,96319.03
2019-05-07T19:33:48.815Z,96317.48
2019-05-07T19:36:22.227Z,96321.14
2019-05-07T19:38:52.968Z,96313.92
2019-05-07T19:41:24.231Z,96313.87
2019-05-07T19:43:55.313Z,96320.92
2019-05-07T19:46:26.780Z,96315.05
2019-05-07T19:48:57.946Z,96313.89
2019-05-07T19:51:28.994Z,96319.48
2019-05-07T19:54:02.069Z,96320.39
2019-05-07T19:56:32.994Z,96315.55
2019-05-07T19:59:04.173Z,96310.50
2019-05-07T20:01:43.775Z,96311.54
2019-05-07T20:04:14.867Z,96309.34
2019-05-07T20:06:46.575Z,96304.06
2019-05-07T20:09:20.257Z,96303.19
2019-05-07T20:11:52.352Z,96298.36
2019-05-07T20:14:23.679Z,96297.30
2019-05-07T20:16:54.967Z,96297.46
2019-05-07T20:19:26.142Z,96295.04
2019-05-07T20:21:57.371Z,96298.47
2019-05-07T20:24:28.402Z,96287.52
2019-05-07T20:26:59.513Z,96288.18
2019-05-07T20:29:32.286Z,96285.31
2019-05-07T20:32:04.759Z,96288.27
2019-05-07T20:34:35.770Z,96281.11
2019-05-07T20:37:08.149Z,96283.06
2019-05-07T20:39:39.151Z,96282.19
2019-05-07T20:42:12.244Z,96283.34
2019-05-07T20:44:43.186Z,96283.84
2019-05-07T20:47:14.448Z,96285.94
2019-05-07T20:49:46.540Z,96277.63
2019-05-07T20:52:17.554Z,96264.17
2019-05-07T20:54:55.556Z,96257.92
2019-05-07T20:57:31.843Z,96253.52
2019-05-07T21:00:02.962Z,96260.55
2019-05-07T21:02:45.411Z,96258.85
2019-05-07T21:05:08.857Z,96259.29
2019-05-07T21:07:42.304Z,96255.73
2019-05-07T21:10:13.160Z,96257.92
2019-05-07T21:12:44.220Z,96252.82
2019-05-07T21:15:15.350Z,96248.41
2019-05-07T21:17:46.776Z,96249.16
2019-05-07T21:20:17.898Z,96243.67
2019-05-07T21:22:48.983Z,96228.17
2019-05-07T21:25:20.050Z,96221.66
2019-05-07T21:27:53.098Z,96212.45
2019-05-07T21:30:23.975Z,96209.65
2019-05-07T21:32:55.056Z,96211.70
2019-05-07T21:35:26.167Z,96206.44
2019-05-07T21:37:57.405Z,96211.41
2019-05-07T21:40:28.603Z,96207.27
2019-05-07T21:43:00.071Z,96204.84
2019-05-07T21:45:32.690Z,96204.70
2019-05-07T21:48:03.974Z,96204.68
2019-05-07T21:50:35.098Z,96208.06
2019-05-07T21:53:12.044Z,96201.03
2019-05-07T21:55:59.920Z,96196.94
2019-05-07T21:58:36.755Z,96197.75
2019-05-07T22:01:12.472Z,96197.83
2019-05-07T22:03:48.601Z,96193.86
2019-05-07T22:06:19.703Z,96198.16
2019-05-07T22:08:52.552Z,96199.33
2019-05-07T22:11:23.748Z,96192.68
2019-05-07T22:13:55.135Z,96195.56
2019-05-07T22:16:26.123Z,96188.20
2019-05-07T22:18:57.131Z,96180.17
2019-05-07T22:21:28.182Z,96172.38
2019-05-07T22:23:59.441Z,96167.20
2019-05-07T22:26:32.203Z,96174.80
2019-05-07T22:29:03.420Z,96169.44
2019-05-07T22:31:53.011Z,96159.02
2019-05-07T22:34:32.246Z,96148.88
2019-05-07T22:37:03.498Z,96148.53
2019-05-07T22:39:45.002Z,96153.58
2019-05-07T22:42:17.765Z,96146.91
2019-05-07T22:44:48.853Z,96141.74
2019-05-07T22:47:22.772Z,96154.33
2019-05-07T22:49:53.779Z,96144.66
2019-05-07T22:52:24.992Z,96144.16
2019-05-07T22:54:56.005Z,96138.01
2019-05-07T22:57:33.659Z,96139.52
2019-05-07T23:00:05.872Z,96142.28
2019-05-07T23:02:38.807Z,96133.75
2019-05-07T23:05:12.076Z,96131.51
2019-05-07T23:07:44.058Z,96129.95
2019-05-07T23:10:15.873Z,96121.74
2019-05-07T23:12:47.167Z,96122.70
2019-05-07T23:15:18.312Z,96118.16
2019-05-07T23:17:49.475Z,96112.25
2019-05-07T23:20:24.148Z,96110.08
2019-05-07T23:22:53.203Z,96107.80
2019-05-07T23:25:24.660Z,96106.92
2019-05-07T23:27:55.825Z,96104.92
2019-05-07T23:30:26.814Z,96099.66
2019-05-07T23:32:57.964Z,96105.55
2019-05-07T23:35:29.068Z,96101.92
2019-05-07T23:38:02.325Z,96102.29
2019-05-07T23:40:41.861Z,96108.45
2019-05-07T23:43:13.921Z,96101.38
2019-05-07T23:45:44.927Z,96102.36
2019-05-07T23:48:17.184Z,96096.93
2019-05-07T23:50:48.334Z,96097.21
2019-05-07T23:53:19.355Z,96099.08
2019-05-07T23:55:52.014Z,96096.00
2019-05-07T23:58:23.211Z,96093.29
